Time;durP1;ratioP1;P1;durP2;ratioP2;P2;SDS_P1;SDS_P2;PMS_P1;PMS_P2;Temp;Humidity;BMP_temperature;BMP_pressure;BME280_temperature;BME280_humidity;BME280_pressure;Samples;Min_cycle;Max_cycle;Signal;HPM_P1;HPM_P2
2021/12/28 00:01:30;;;;;;;16.43;10.53;;;2.50;99.90;;;;;;5059015;28;20210;-37
2021/12/28 00:03:58;;;;;;;16.80;11.50;;;2.50;99.90;;;;;;5064856;28;20207;-37
2021/12/28 00:06:25;;;;;;;20.00;11.73;;;2.50;99.90;;;;;;5049869;28;20998;-37
2021/12/28 00:08:52;;;;;;;18.60;10.97;;;2.50;99.90;;;;;;5052071;28;20283;-37
2021/12/28 00:11:19;;;;;;;20.13;11.63;;;2.50;99.90;;;;;;5060677;28;20199;-37
2021/12/28 00:13:46;;;;;;;17.03;10.97;;;2.50;99.90;;;;;;5051535;28;20237;-37
2021/12/28 00:16:28;;;;;;;18.73;11.47;;;2.50;99.90;;;;;;5049662;28;20293;-36
2021/12/28 00:18:58;;;;;;;17.13;10.57;;;2.50;99.90;;;;;;5071710;28;20226;-37
2021/12/28 00:21:24;;;;;;;18.03;11.10;;;2.50;99.90;;;;;;5034411;28;20217;-45
2021/12/28 00:23:51;;;;;;;18.20;11.43;;;2.50;99.90;;;;;;5045179;28;20219;-46
2021/12/28 00:26:20;;;;;;;17.17;10.77;;;2.50;99.90;;;;;;5055536;28;20229;-45
2021/12/28 00:28:47;;;;;;;18.07;10.70;;;2.50;99.90;;;;;;5036306;28;20386;-46
2021/12/28 00:31:16;;;;;;;15.20;10.63;;;2.50;99.90;;;;;;5063741;28;20221;-45
2021/12/28 00:33:44;;;;;;;17.53;10.63;;;2.50;99.90;;;;;;5070219;28;20207;-39
2021/12/28 00:36:13;;;;;;;15.87;10.73;;;2.50;99.90;;;;;;5036296;28;20307;-40
2021/12/28 00:38:40;;;;;;;20.00;11.13;;;2.50;99.90;;;;;;5060261;28;20205;-40
2021/12/28 00:41:08;;;;;;;17.17;10.80;;;2.50;99.90;;;;;;5048815;28;20215;-37
2021/12/28 00:43:35;;;;;;;21.57;11.70;;;2.50;99.90;;;;;;5071646;28;20195;-37
2021/12/28 00:46:03;;;;;;;15.33;10.23;;;2.50;99.90;;;;;;5041620;28;21304;-37
2021/12/28 00:48:31;;;;;;;16.77;10.60;;;2.60;99.90;;;;;;5061607;28;20730;-38
2021/12/28 00:50:58;;;;;;;15.40;10.87;;;2.50;99.90;;;;;;5056828;28;20207;-37
2021/12/28 00:53:27;;;;;;;16.67;11.33;;;2.50;99.90;;;;;;5053871;28;20207;-37
2021/12/28 00:55:54;;;;;;;17.63;10.87;;;2.50;99.90;;;;;;5029130;28;20238;-40
2021/12/28 00:58:21;;;;;;;19.53;10.80;;;2.50;99.90;;;;;;5063814;28;21163;-40
2021/12/28 01:00:48;;;;;;;18.97;11.50;;;2.50;99.90;;;;;;5049949;28;20213;-40
2021/12/28 01:03:15;;;;;;;17.17;10.77;;;2.50;99.90;;;;;;5055491;28;20210;-40
2021/12/28 01:05:43;;;;;;;19.40;10.87;;;2.50;99.90;;;;;;5073904;28;20244;-40
2021/12/28 01:08:10;;;;;;;15.63;10.47;;;2.50;99.90;;;;;;5052647;28;20210;-40
2021/12/28 01:10:43;;;;;;;19.77;10.67;;;2.50;99.90;;;;;;5066639;28;20211;-40
2021/12/28 01:13:10;;;;;;;16.37;10.80;;;2.60;99.90;;;;;;5054395;28;20229;-40
2021/12/28 01:15:38;;;;;;;17.00;10.63;;;2.60;99.90;;;;;;5061477;28;20227;-40
2021/12/28 01:18:05;;;;;;;16.43;10.77;;;2.60;99.90;;;;;;5032623;28;20210;-39
2021/12/28 01:20:33;;;;;;;18.43;11.23;;;2.60;99.90;;;;;;5068985;28;20193;-40
2021/12/28 01:23:00;;;;;;;15.97;10.47;;;2.70;99.90;;;;;;5042643;27;20262;-40
2021/12/28 01:25:27;;;;;;;14.67;9.60;;;2.60;99.90;;;;;;5049815;28;20229;-39
2021/12/28 01:27:55;;;;;;;14.43;10.13;;;2.60;99.90;;;;;;5058603;28;20868;-40
2021/12/28 01:30:24;;;;;;;16.33;10.83;;;2.60;99.90;;;;;;5062115;28;20708;-39
2021/12/28 01:32:52;;;;;;;17.90;10.40;;;2.60;99.90;;;;;;5035538;28;20208;-40
2021/12/28 01:35:20;;;;;;;16.30;10.37;;;2.60;99.90;;;;;;5071054;28;20229;-40
2021/12/28 01:37:49;;;;;;;16.47;10.37;;;2.60;99.90;;;;;;5045294;28;20988;-41
2021/12/28 01:40:18;;;;;;;17.30;11.27;;;2.60;99.90;;;;;;5078982;28;20205;-40
2021/12/28 01:43:06;;;;;;;16.90;10.77;;;2.70;99.90;;;;;;5049608;28;20204;-40
2021/12/28 01:45:48;;;;;;;16.37;10.30;;;2.70;99.90;;;;;;5062519;28;20328;-40
2021/12/28 01:48:18;;;;;;;16.60;11.10;;;2.70;99.90;;;;;;5038538;28;20928;-40
2021/12/28 01:50:45;;;;;;;18.63;10.37;;;2.70;99.90;;;;;;5067103;28;20223;-40
2021/12/28 01:53:13;;;;;;;16.67;10.73;;;2.80;99.90;;;;;;5068471;27;20214;-40
2021/12/28 01:55:41;;;;;;;19.80;11.23;;;2.80;99.90;;;;;;5056214;28;20242;-40
2021/12/28 01:58:10;;;;;;;18.40;11.07;;;2.80;99.90;;;;;;5052810;27;20223;-40
2021/12/28 02:00:39;;;;;;;17.07;10.97;;;2.80;99.90;;;;;;5052248;28;20202;-39
2021/12/28 02:03:07;;;;;;;15.53;10.97;;;2.80;99.90;;;;;;5062497;28;20225;-40
2021/12/28 02:05:35;;;;;;;14.67;10.03;;;2.80;99.90;;;;;;5045127;28;20234;-40
2021/12/28 02:08:01;;;;;;;16.67;10.07;;;2.80;99.90;;;;;;5077807;28;20311;-39
2021/12/28 02:10:28;;;;;;;15.50;10.60;;;2.80;99.90;;;;;;5062048;28;20230;-40
2021/12/28 02:12:55;;;;;;;16.13;10.17;;;2.80;99.90;;;;;;5054332;28;20210;-40
2021/12/28 02:15:24;;;;;;;16.23;10.70;;;2.80;99.90;;;;;;5073197;28;20219;-40
2021/12/28 02:17:51;;;;;;;14.67;10.87;;;2.80;99.90;;;;;;5045343;28;22770;-40
2021/12/28 02:20:21;;;;;;;16.63;10.50;;;2.80;99.90;;;;;;5043195;28;20208;-40
2021/12/28 02:22:48;;;;;;;16.93;11.47;;;2.80;99.90;;;;;;5061984;28;20609;-40
2021/12/28 02:25:18;;;;;;;15.50;10.60;;;2.80;99.90;;;;;;5061856;27;20282;-40
2021/12/28 02:27:46;;;;;;;16.80;10.47;;;2.80;99.90;;;;;;5068376;28;20935;-40
2021/12/28 02:30:16;;;;;;;16.57;11.43;;;2.80;99.90;;;;;;5057219;28;20588;-40
2021/12/28 02:32:44;;;;;;;15.37;11.00;;;2.90;99.90;;;;;;5062963;27;20202;-40
2021/12/28 02:35:15;;;;;;;15.83;10.57;;;2.90;99.90;;;;;;5047089;27;20234;-40
2021/12/28 02:37:43;;;;;;;16.47;10.07;;;2.90;99.90;;;;;;5065302;28;20211;-40
2021/12/28 02:40:14;;;;;;;16.90;10.47;;;2.90;99.90;;;;;;5054211;28;20202;-40
2021/12/28 02:42:42;;;;;;;16.33;10.40;;;2.90;99.90;;;;;;5069042;28;20259;-40
2021/12/28 02:45:13;;;;;;;17.10;11.23;;;2.90;99.90;;;;;;5062994;28;20227;-40
2021/12/28 02:47:42;;;;;;;18.70;11.20;;;2.90;99.90;;;;;;5054239;28;20238;-40
2021/12/28 02:50:12;;;;;;;16.97;10.83;;;2.90;99.90;;;;;;5060862;27;20224;-40
2021/12/28 02:52:40;;;;;;;14.53;10.07;;;2.90;99.90;;;;;;5039619;28;20213;-39
2021/12/28 02:55:12;;;;;;;16.77;11.03;;;3.00;99.90;;;;;;5067566;28;20238;-40
2021/12/28 02:57:46;;;;;;;15.60;9.93;;;3.00;99.90;;;;;;5053444;27;20203;-40
2021/12/28 03:00:15;;;;;;;16.17;11.07;;;3.00;99.90;;;;;;5049158;28;20677;-40
2021/12/28 03:02:42;;;;;;;20.00;11.83;;;3.00;99.90;;;;;;5053640;28;20215;-40
2021/12/28 03:05:09;;;;;;;17.30;10.63;;;3.00;99.90;;;;;;5049966;28;20226;-40
2021/12/28 03:07:36;;;;;;;15.07;10.47;;;3.10;99.90;;;;;;5048668;28;20222;-40
2021/12/28 03:10:03;;;;;;;18.30;10.63;;;3.00;99.90;;;;;;5076282;28;20219;-45
2021/12/28 03:12:32;;;;;;;18.43;11.17;;;3.10;99.90;;;;;;5035647;28;20207;-45
2021/12/28 03:14:58;;;;;;;14.90;10.30;;;3.10;99.90;;;;;;5046785;28;20231;-46
2021/12/28 03:17:25;;;;;;;16.37;11.70;;;3.10;99.90;;;;;;5069878;28;20895;-45
2021/12/28 03:19:52;;;;;;;15.80;10.53;;;3.00;99.90;;;;;;5046490;27;20204;-45
2021/12/28 03:22:19;;;;;;;16.03;10.57;;;3.00;99.90;;;;;;5039932;28;20231;-45
2021/12/28 03:24:46;;;;;;;19.50;11.43;;;2.90;99.90;;;;;;5061498;28;20207;-45
2021/12/28 03:27:13;;;;;;;17.00;11.03;;;3.00;99.90;;;;;;5058211;28;20214;-45
2021/12/28 03:29:41;;;;;;;15.20;10.43;;;3.00;99.90;;;;;;5055348;28;20254;-45
2021/12/28 03:32:08;;;;;;;16.93;10.53;;;3.00;99.90;;;;;;5061394;28;20628;-46
2021/12/28 03:37:57;;;;;;;16.83;10.63;;;3.00;99.90;;;;;;5050897;28;21142;-45
2021/12/28 03:40:24;;;;;;;19.07;11.17;;;3.00;99.90;;;;;;5055289;28;20224;-46
2021/12/28 03:42:51;;;;;;;15.27;9.97;;;3.00;99.90;;;;;;5052732;28;21752;-45
2021/12/28 03:45:19;;;;;;;18.17;10.87;;;3.00;99.90;;;;;;5049951;28;20242;-45
2021/12/28 03:47:46;;;;;;;15.23;10.30;;;3.00;99.90;;;;;;5041794;28;20223;-40
2021/12/28 03:50:14;;;;;;;18.10;11.00;;;3.00;99.90;;;;;;5060980;28;20234;-40
2021/12/28 03:52:42;;;;;;;19.10;11.83;;;3.00;99.90;;;;;;5045462;28;20226;-40
2021/12/28 03:55:10;;;;;;;16.63;10.97;;;3.00;99.90;;;;;;5061576;28;20218;-40
2021/12/28 03:57:39;;;;;;;17.60;11.70;;;3.00;99.90;;;;;;5066301;27;20210;-40
2021/12/28 04:00:08;;;;;;;19.60;10.63;;;3.00;99.90;;;;;;5049791;28;20241;-40
2021/12/28 04:02:36;;;;;;;16.93;11.30;;;3.10;99.90;;;;;;5050222;28;20207;-40
2021/12/28 04:05:03;;;;;;;16.00;11.43;;;3.10;99.90;;;;;;5060848;28;20230;-40
2021/12/28 04:07:30;;;;;;;17.80;12.50;;;3.00;99.90;;;;;;5057669;27;20204;-40
2021/12/28 04:10:01;;;;;;;16.37;11.53;;;3.10;99.90;;;;;;5052449;28;21208;-40
2021/12/28 04:12:28;;;;;;;17.83;11.17;;;3.10;99.90;;;;;;5065188;28;20242;-40
2021/12/28 04:14:55;;;;;;;14.07;11.03;;;3.10;99.90;;;;;;5048976;28;21953;-40
2021/12/28 04:17:22;;;;;;;20.13;12.47;;;3.10;99.90;;;;;;5044549;28;20235;-40
2021/12/28 04:19:50;;;;;;;18.60;12.00;;;3.10;99.90;;;;;;5070035;28;20196;-39
2021/12/28 04:22:17;;;;;;;19.80;12.93;;;3.10;99.90;;;;;;5064171;28;20219;-40
2021/12/28 04:24:44;;;;;;;17.47;11.43;;;3.10;99.90;;;;;;5053079;28;20335;-40
2021/12/28 04:27:11;;;;;;;19.63;12.00;;;3.10;99.90;;;;;;5061017;28;20293;-40
2021/12/28 04:29:38;;;;;;;16.50;11.17;;;3.00;99.90;;;;;;5055117;28;20220;-40
2021/12/28 04:32:06;;;;;;;17.90;11.53;;;3.10;99.90;;;;;;5042726;28;20213;-40
2021/12/28 04:34:34;;;;;;;20.60;12.40;;;3.00;99.90;;;;;;5078424;28;20202;-40
2021/12/28 04:37:02;;;;;;;17.10;11.40;;;3.00;99.90;;;;;;5060291;27;20276;-40
2021/12/28 04:39:28;;;;;;;17.20;11.70;;;3.00;99.90;;;;;;5054386;28;20656;-39
2021/12/28 04:41:55;;;;;;;18.63;12.13;;;3.10;99.90;;;;;;5047682;27;20211;-40
2021/12/28 04:44:25;;;;;;;19.20;11.47;;;3.10;99.90;;;;;;5076553;27;20219;-40
2021/12/28 04:46:53;;;;;;;17.40;11.17;;;3.10;99.90;;;;;;5075528;27;20408;-40
2021/12/28 04:49:21;;;;;;;17.10;10.90;;;3.10;99.90;;;;;;5057855;27;20266;-40
2021/12/28 04:51:49;;;;;;;16.97;11.77;;;3.10;99.90;;;;;;5075226;27;20203;-40
2021/12/28 04:54:19;;;;;;;16.97;11.27;;;3.10;99.90;;;;;;5053049;28;20219;-40
2021/12/28 04:56:46;;;;;;;18.77;11.60;;;3.10;99.90;;;;;;5047105;27;20313;-40
2021/12/28 04:59:13;;;;;;;17.20;11.77;;;3.00;99.90;;;;;;5084018;27;20631;-40
2021/12/28 05:01:40;;;;;;;17.27;11.83;;;3.00;99.90;;;;;;5058409;28;20260;-40
2021/12/28 05:04:07;;;;;;;18.00;11.83;;;3.00;99.90;;;;;;5065431;28;20806;-40
2021/12/28 05:06:35;;;;;;;16.33;11.03;;;3.00;99.90;;;;;;5079983;28;20233;-40
2021/12/28 05:09:04;;;;;;;17.27;11.00;;;3.10;99.90;;;;;;5057196;28;20211;-40
2021/12/28 05:11:33;;;;;;;17.90;11.53;;;3.10;99.90;;;;;;5045425;28;20234;-40
2021/12/28 05:14:00;;;;;;;18.50;12.00;;;3.10;99.90;;;;;;5067056;27;20215;-40
2021/12/28 05:16:29;;;;;;;17.77;11.93;;;3.10;99.90;;;;;;5071012;27;20231;-40
2021/12/28 05:18:57;;;;;;;16.57;11.67;;;3.10;99.90;;;;;;5074408;28;20205;-37
2021/12/28 05:21:24;;;;;;;18.87;11.73;;;3.10;99.90;;;;;;5053828;28;20775;-38
2021/12/28 05:23:52;;;;;;;17.33;11.80;;;3.10;99.90;;;;;;5066058;28;20227;-37
2021/12/28 05:26:19;;;;;;;19.93;11.90;;;3.10;99.90;;;;;;5068007;28;20234;-37
2021/12/28 05:28:47;;;;;;;19.47;12.40;;;3.10;99.90;;;;;;5042376;27;20226;-37
2021/12/28 05:31:14;;;;;;;17.13;11.57;;;3.20;99.90;;;;;;5062547;27;20808;-37
2021/12/28 05:33:42;;;;;;;18.33;12.43;;;3.10;99.90;;;;;;5070676;28;20207;-40
2021/12/28 05:36:09;;;;;;;18.37;12.10;;;3.10;99.90;;;;;;5055588;27;20232;-37
2021/12/28 05:38:36;;;;;;;18.13;12.27;;;3.10;99.90;;;;;;5059298;27;20208;-37
2021/12/28 05:41:05;;;;;;;16.70;11.47;;;3.10;99.90;;;;;;5067200;27;20217;-37
2021/12/28 05:43:32;;;;;;;17.70;11.83;;;3.10;99.90;;;;;;5051822;27;20222;-37
2021/12/28 05:46:01;;;;;;;20.37;11.43;;;3.20;99.90;;;;;;5054124;28;20432;-37
2021/12/28 05:48:27;;;;;;;18.27;11.50;;;3.10;99.90;;;;;;5063100;28;20211;-38
2021/12/28 05:50:54;;;;;;;20.27;11.17;;;3.10;99.90;;;;;;5063034;28;20216;-39
2021/12/28 05:53:21;;;;;;;18.30;12.07;;;3.10;99.90;;;;;;5060127;28;20216;-40
2021/12/28 05:55:48;;;;;;;16.27;11.20;;;3.10;99.90;;;;;;5061156;27;22675;-40
2021/12/28 05:58:15;;;;;;;18.20;11.53;;;3.10;99.90;;;;;;5078855;28;20214;-39
2021/12/28 06:00:43;;;;;;;16.73;11.77;;;3.10;99.90;;;;;;5050402;28;20211;-40
2021/12/28 06:03:11;;;;;;;17.23;11.27;;;3.10;99.90;;;;;;5035232;28;20221;-39
2021/12/28 06:05:38;;;;;;;18.83;12.07;;;3.10;99.90;;;;;;5074720;27;20229;-40
2021/12/28 06:08:05;;;;;;;21.03;11.57;;;3.10;99.90;;;;;;5053650;28;20827;-40
2021/12/28 06:10:32;;;;;;;20.93;11.33;;;3.10;99.90;;;;;;5072215;27;20229;-42
2021/12/28 06:12:59;;;;;;;15.73;11.13;;;3.00;99.90;;;;;;5057554;28;20215;-40
2021/12/28 06:15:26;;;;;;;18.00;11.80;;;3.00;99.90;;;;;;5054398;27;20233;-40
2021/12/28 06:17:53;;;;;;;16.70;11.63;;;3.00;99.90;;;;;;5054628;28;20203;-40
2021/12/28 06:20:21;;;;;;;16.77;11.53;;;3.10;99.90;;;;;;5061660;28;20211;-40
2021/12/28 06:22:48;;;;;;;17.10;11.63;;;3.10;99.90;;;;;;5056527;27;20199;-40
2021/12/28 06:25:15;;;;;;;18.07;11.57;;;3.10;99.90;;;;;;5078597;28;20238;-40
2021/12/28 06:27:42;;;;;;;16.67;11.50;;;3.10;99.90;;;;;;5056420;28;20208;-40
2021/12/28 06:30:10;;;;;;;18.83;12.00;;;3.10;99.90;;;;;;5043422;28;20273;-40
2021/12/28 06:32:36;;;;;;;20.03;11.70;;;3.10;99.90;;;;;;5057101;28;20250;-40
2021/12/28 06:35:04;;;;;;;17.87;12.00;;;3.10;99.90;;;;;;5063461;28;20237;-40
2021/12/28 06:37:32;;;;;;;16.03;11.27;;;3.10;99.90;;;;;;5052571;28;20206;-40
2021/12/28 06:40:00;;;;;;;20.57;11.63;;;3.00;99.90;;;;;;5068318;28;20904;-40
2021/12/28 06:42:27;;;;;;;16.47;10.80;;;2.90;99.90;;;;;;5074746;28;20219;-40
2021/12/28 06:44:54;;;;;;;17.03;10.97;;;2.80;99.90;;;;;;5051250;28;20231;-40
2021/12/28 06:47:20;;;;;;;18.20;11.57;;;2.80;99.90;;;;;;5057835;28;20734;-39
2021/12/28 06:49:47;;;;;;;15.77;10.60;;;2.80;99.90;;;;;;5049828;28;20210;-40
2021/12/28 06:52:15;;;;;;;14.53;10.33;;;2.70;99.90;;;;;;5055414;28;20749;-40
2021/12/28 06:54:44;;;;;;;18.03;11.43;;;2.70;99.90;;;;;;5055996;28;20532;-40
2021/12/28 06:57:12;;;;;;;16.40;10.40;;;2.70;99.90;;;;;;5053479;28;20207;-40
2021/12/28 06:59:43;;;;;;;17.00;10.73;;;2.70;99.90;;;;;;5051601;28;20600;-40
2021/12/28 07:02:11;;;;;;;16.77;11.00;;;2.70;99.90;;;;;;5060678;28;21871;-40
2021/12/28 07:04:38;;;;;;;14.17;10.53;;;2.80;99.90;;;;;;5061267;28;20212;-40
2021/12/28 07:07:06;;;;;;;17.27;10.67;;;2.80;99.90;;;;;;5062062;28;20279;-40
2021/12/28 07:09:33;;;;;;;17.60;10.90;;;2.80;99.90;;;;;;5052546;28;20210;-40
2021/12/28 07:12:02;;;;;;;18.00;11.43;;;2.70;99.90;;;;;;5070251;28;20354;-40
2021/12/28 07:14:29;;;;;;;17.83;11.40;;;2.70;99.90;;;;;;5062555;28;20676;-40
2021/12/28 07:16:56;;;;;;;16.17;11.13;;;2.70;99.90;;;;;;5048506;28;20220;-40
2021/12/28 07:19:24;;;;;;;17.67;10.63;;;2.70;99.90;;;;;;5055858;28;20222;-40
2021/12/28 07:21:51;;;;;;;14.93;10.83;;;2.70;99.90;;;;;;5054645;28;20712;-40
2021/12/28 07:24:20;;;;;;;14.97;10.00;;;2.70;99.90;;;;;;5057560;28;20234;-40
2021/12/28 07:26:47;;;;;;;14.90;10.73;;;2.70;99.90;;;;;;5061437;28;20237;-40
2021/12/28 07:29:16;;;;;;;16.43;11.23;;;2.70;99.90;;;;;;5058887;28;20213;-40
2021/12/28 07:31:43;;;;;;;15.87;10.37;;;2.70;99.90;;;;;;5027465;28;20237;-40
2021/12/28 07:34:10;;;;;;;15.93;10.90;;;2.80;99.90;;;;;;5065267;28;20210;-40
2021/12/28 07:36:37;;;;;;;15.50;10.80;;;2.80;99.90;;;;;;5053257;28;20695;-40
2021/12/28 07:39:06;;;;;;;18.50;10.83;;;2.80;99.90;;;;;;5043357;28;20215;-40
2021/12/28 07:41:32;;;;;;;16.23;11.37;;;2.90;99.90;;;;;;5059344;28;20195;-40
2021/12/28 07:44:00;;;;;;;18.00;11.13;;;2.90;99.90;;;;;;5069270;27;20290;-40
2021/12/28 07:46:28;;;;;;;15.10;10.67;;;2.90;99.90;;;;;;5050943;28;20223;-40
2021/12/28 07:48:55;;;;;;;17.83;11.03;;;2.90;99.90;;;;;;5057629;27;20212;-41
2021/12/28 07:51:22;;;;;;;17.80;11.10;;;3.00;99.90;;;;;;5075195;28;20231;-40
2021/12/28 07:53:49;;;;;;;20.23;10.60;;;3.00;99.90;;;;;;5050600;28;20206;-40
2021/12/28 07:56:16;;;;;;;15.83;10.13;;;3.00;99.90;;;;;;5070578;28;20234;-40
2021/12/28 07:58:43;;;;;;;14.30;11.10;;;3.00;99.90;;;;;;5069306;28;20208;-40
2021/12/28 08:01:10;;;;;;;18.23;10.90;;;3.00;99.90;;;;;;5063313;28;20201;-40
2021/12/28 08:03:39;;;;;;;17.40;10.67;;;3.10;99.90;;;;;;5050026;28;20215;-40
2021/12/28 08:06:06;;;;;;;16.20;10.70;;;3.10;99.90;;;;;;5052699;28;20234;-40
2021/12/28 08:08:33;;;;;;;15.77;10.07;;;3.10;99.90;;;;;;5049938;28;20294;-40
2021/12/28 08:11:01;;;;;;;17.10;10.70;;;3.10;99.90;;;;;;5049798;28;20230;-40
2021/12/28 08:13:28;;;;;;;15.47;11.03;;;3.10;99.90;;;;;;5048935;28;20234;-40
2021/12/28 08:15:56;;;;;;;15.73;10.97;;;3.10;99.90;;;;;;5062666;28;21629;-41
2021/12/28 08:18:23;;;;;;;17.10;10.97;;;3.10;99.90;;;;;;5039086;28;20261;-40
2021/12/28 08:20:52;;;;;;;19.10;10.03;;;3.10;99.90;;;;;;5059236;27;20196;-38
2021/12/28 08:23:19;;;;;;;16.93;9.70;;;3.10;99.90;;;;;;5045720;28;20768;-38
2021/12/28 08:25:46;;;;;;;18.40;10.63;;;3.20;99.90;;;;;;5038552;28;20254;-41
2021/12/28 08:28:13;;;;;;;15.97;11.17;;;3.20;99.90;;;;;;5067445;28;20833;-41
2021/12/28 08:30:40;;;;;;;14.27;10.60;;;3.20;99.90;;;;;;5047387;28;20345;-46
2021/12/28 08:33:09;;;;;;;14.20;9.77;;;3.30;99.90;;;;;;5048749;28;20224;-40
2021/12/28 08:35:39;;;;;;;13.60;10.33;;;3.30;99.90;;;;;;5040799;28;21359;-40
2021/12/28 08:38:08;;;;;;;17.03;9.80;;;3.30;99.90;;;;;;5058944;28;20295;-41
2021/12/28 08:40:35;;;;;;;17.40;10.73;;;3.30;99.90;;;;;;5061649;28;20210;-41
2021/12/28 08:43:02;;;;;;;22.47;10.50;;;3.40;99.90;;;;;;5065207;28;20588;-46
2021/12/28 08:45:29;;;;;;;16.33;10.70;;;3.40;99.90;;;;;;5064869;28;20216;-46
2021/12/28 08:47:56;;;;;;;17.33;10.20;;;3.40;99.90;;;;;;5053306;28;20214;-45
2021/12/28 08:50:23;;;;;;;17.90;11.17;;;3.40;99.90;;;;;;5048382;28;20911;-46
2021/12/28 08:52:51;;;;;;;17.10;10.80;;;3.40;99.90;;;;;;5053695;28;20224;-46
2021/12/28 08:55:22;;;;;;;17.10;10.40;;;3.40;99.90;;;;;;5026100;28;20228;-46
2021/12/28 08:57:49;;;;;;;20.60;9.87;;;3.40;99.90;;;;;;5040014;28;20216;-41
2021/12/28 09:00:19;;;;;;;15.60;10.67;;;3.40;99.90;;;;;;5052124;28;20761;-41
2021/12/28 09:02:45;;;;;;;16.60;10.47;;;3.40;99.90;;;;;;5067695;28;20211;-38
2021/12/28 09:05:13;;;;;;;14.93;9.90;;;3.40;99.90;;;;;;5047974;28;20235;-38
2021/12/28 09:07:40;;;;;;;13.70;9.60;;;3.50;99.90;;;;;;5057920;28;20213;-38
2021/12/28 09:10:08;;;;;;;15.73;10.20;;;3.40;99.90;;;;;;5072038;28;20222;-41
2021/12/28 09:12:36;;;;;;;14.57;9.70;;;3.40;99.90;;;;;;5035285;28;20725;-41
2021/12/28 09:15:04;;;;;;;22.43;10.67;;;3.50;99.90;;;;;;5056536;28;20701;-41
2021/12/28 09:17:33;;;;;;;16.10;9.77;;;3.40;99.90;;;;;;5066072;28;20277;-41
2021/12/28 09:20:00;;;;;;;14.87;9.83;;;3.50;99.90;;;;;;5054279;28;20218;-41
2021/12/28 09:22:28;;;;;;;12.93;9.80;;;3.50;99.90;;;;;;5054874;28;20200;-41
2021/12/28 09:24:55;;;;;;;14.43;9.87;;;3.50;99.90;;;;;;5033237;28;20235;-41
2021/12/28 09:27:22;;;;;;;14.30;9.83;;;3.60;99.90;;;;;;5045613;28;20252;-41
2021/12/28 09:29:50;;;;;;;13.93;9.57;;;3.60;99.90;;;;;;5069165;28;20210;-41
2021/12/28 09:32:20;;;;;;;17.50;10.37;;;3.60;99.90;;;;;;5068149;28;20797;-41
2021/12/28 09:34:50;;;;;;;15.30;10.30;;;3.70;99.90;;;;;;5059875;27;20298;-41
2021/12/28 09:37:19;;;;;;;19.13;10.27;;;3.70;99.90;;;;;;5073542;28;20199;-41
2021/12/28 09:39:46;;;;;;;21.87;10.57;;;3.70;99.90;;;;;;5071344;27;20990;-41
2021/12/28 09:42:13;;;;;;;18.03;9.70;;;3.80;99.90;;;;;;5064214;27;20210;-41
2021/12/28 09:44:40;;;;;;;17.77;9.83;;;3.90;99.90;;;;;;5067541;27;20199;-42
2021/12/28 09:47:09;;;;;;;16.03;10.10;;;3.90;99.90;;;;;;5074120;28;20348;-41
2021/12/28 09:49:37;;;;;;;17.13;10.87;;;4.00;99.90;;;;;;5082606;27;20654;-41
2021/12/28 09:52:06;;;;;;;16.53;10.23;;;4.10;99.90;;;;;;5060681;27;20226;-41
2021/12/28 09:54:34;;;;;;;15.97;10.20;;;4.10;99.90;;;;;;5054034;28;20207;-41
2021/12/28 09:57:01;;;;;;;16.77;10.57;;;4.20;99.90;;;;;;5061157;28;20204;-41
2021/12/28 09:59:29;;;;;;;18.03;10.37;;;4.20;99.90;;;;;;5049119;28;20208;-42
2021/12/28 10:01:58;;;;;;;16.93;10.23;;;4.30;99.90;;;;;;5070885;28;20212;-41
2021/12/28 10:04:27;;;;;;;19.53;10.37;;;4.30;99.90;;;;;;5064437;28;20717;-42
2021/12/28 10:07:15;;;;;;;23.27;10.37;;;4.30;99.90;;;;;;5056798;27;20228;-41
2021/12/28 10:09:42;;;;;;;18.03;10.57;;;4.40;99.90;;;;;;5080188;28;20216;-41
2021/12/28 10:12:10;;;;;;;17.10;10.57;;;4.50;99.90;;;;;;5057254;28;20234;-41
2021/12/28 10:14:38;;;;;;;17.83;10.17;;;4.50;99.90;;;;;;5043311;27;20215;-41
2021/12/28 10:17:06;;;;;;;17.10;9.83;;;4.50;99.90;;;;;;5055209;28;20212;-41
2021/12/28 10:19:38;;;;;;;17.00;9.93;;;4.50;99.90;;;;;;5051540;28;20215;-41
2021/12/28 10:22:28;;;;;;;14.00;9.43;;;4.50;99.90;;;;;;5035823;27;20222;-41
2021/12/28 10:24:57;;;;;;;16.13;10.07;;;4.60;99.90;;;;;;5059432;28;20230;-41
2021/12/28 10:27:27;;;;;;;15.80;9.60;;;4.60;99.90;;;;;;5067518;28;20352;-41
2021/12/28 10:30:00;;;;;;;16.00;9.50;;;4.70;99.90;;;;;;5031152;28;21074;-41
2021/12/28 10:32:30;;;;;;;20.20;10.10;;;4.60;99.90;;;;;;5072369;28;20231;-41
2021/12/28 10:35:00;;;;;;;19.27;10.23;;;4.70;99.90;;;;;;5047719;28;20224;-41
2021/12/28 10:37:30;;;;;;;16.23;10.27;;;4.70;99.90;;;;;;5031434;28;20212;-41
2021/12/28 10:39:59;;;;;;;17.30;10.30;;;4.70;99.90;;;;;;5066229;28;20204;-41
2021/12/28 10:42:49;;;;;;;18.23;9.77;;;4.70;99.90;;;;;;5059735;28;20209;-41
2021/12/28 10:45:20;;;;;;;16.67;10.00;;;4.70;99.90;;;;;;5052853;28;20228;-41
2021/12/28 10:47:47;;;;;;;14.87;9.67;;;4.70;99.90;;;;;;5051953;28;20208;-41
2021/12/28 10:50:36;;;;;;;21.40;9.60;;;4.70;99.90;;;;;;5056018;28;20274;-46
2021/12/28 10:53:16;;;;;;;17.87;10.23;;;4.70;99.90;;;;;;5038138;28;20230;-38
2021/12/28 10:55:44;;;;;;;17.87;10.50;;;4.80;99.90;;;;;;5056873;28;20232;-38
2021/12/28 10:58:28;;;;;;;16.70;9.80;;;4.90;99.90;;;;;;5067874;28;20200;-38
2021/12/28 11:01:00;;;;;;;15.77;9.63;;;4.90;99.90;;;;;;5047551;28;20215;-38
2021/12/28 11:03:33;;;;;;;17.57;10.30;;;4.90;99.90;;;;;;5059112;28;20196;-38
2021/12/28 11:06:07;;;;;;;15.50;10.20;;;4.90;99.90;;;;;;5065545;28;20223;-38
2021/12/28 11:08:34;;;;;;;15.57;9.67;;;5.00;99.90;;;;;;5033284;28;20207;-40
2021/12/28 11:11:05;;;;;;;15.87;9.27;;;5.00;99.90;;;;;;5052839;28;20208;-38
2021/12/28 11:13:33;;;;;;;17.30;9.77;;;5.00;99.90;;;;;;5067544;28;20219;-38
2021/12/28 11:16:01;;;;;;;16.53;9.67;;;5.00;99.90;;;;;;5034865;28;20230;-38
2021/12/28 11:18:31;;;;;;;21.37;9.57;;;5.00;99.90;;;;;;5047767;28;20211;-38
2021/12/28 11:21:00;;;;;;;17.90;10.47;;;4.90;99.90;;;;;;5063530;28;20204;-46
2021/12/28 11:23:31;;;;;;;15.43;9.07;;;4.90;99.90;;;;;;5078831;28;20200;-47
2021/12/28 11:26:15;;;;;;;14.93;9.40;;;4.90;99.90;;;;;;5050403;28;20228;-47
2021/12/28 11:28:52;;;;;;;18.33;9.47;;;4.90;99.90;;;;;;5073896;28;20310;-41
2021/12/28 11:31:21;;;;;;;16.17;10.30;;;5.00;99.90;;;;;;5051755;27;20988;-41
2021/12/28 11:33:55;;;;;;;20.23;9.30;;;5.00;99.90;;;;;;5048692;28;20219;-41
2021/12/28 11:36:24;;;;;;;14.83;9.37;;;5.00;99.90;;;;;;5048657;28;20967;-41
2021/12/28 11:38:54;;;;;;;19.33;10.00;;;5.10;99.90;;;;;;5048794;28;22784;-42
2021/12/28 11:41:22;;;;;;;15.87;10.13;;;5.10;99.90;;;;;;5053632;28;20211;-42
2021/12/28 11:43:49;;;;;;;15.97;9.23;;;5.10;99.90;;;;;;5064821;28;20274;-42
2021/12/28 11:46:16;;;;;;;16.47;9.53;;;5.10;99.90;;;;;;5050340;28;20321;-42
2021/12/28 11:48:45;;;;;;;17.97;10.13;;;5.10;99.90;;;;;;5044134;28;20228;-42
2021/12/28 11:51:13;;;;;;;13.93;9.00;;;5.20;99.90;;;;;;5042599;28;20409;-42
2021/12/28 11:53:44;;;;;;;22.43;9.97;;;5.10;99.90;;;;;;5066106;28;20223;-42
2021/12/28 11:56:13;;;;;;;18.43;9.57;;;5.10;99.90;;;;;;5030610;28;20679;-42
2021/12/28 11:59:06;;;;;;;17.53;9.57;;;5.10;99.90;;;;;;5054894;28;20211;-42
2021/12/28 12:01:55;;;;;;;17.00;10.47;;;5.10;99.90;;;;;;5047904;28;20847;-42
2021/12/28 12:04:56;;;;;;;17.60;9.87;;;5.20;99.90;;;;;;5039486;28;20572;-42
2021/12/28 12:07:32;;;;;;;15.67;9.33;;;5.30;99.90;;;;;;5045024;28;20943;-42
2021/12/28 12:10:34;;;;;;;15.90;9.03;;;5.30;99.90;;;;;;5044022;28;20212;-42
2021/12/28 12:13:25;;;;;;;20.27;9.97;;;5.30;99.90;;;;;;5042648;28;20312;-41
2021/12/28 12:15:55;;;;;;;19.03;9.03;;;5.30;99.90;;;;;;5064090;28;20215;-42
2021/12/28 12:18:25;;;;;;;18.90;9.07;;;5.40;99.90;;;;;;5043163;28;20208;-42
2021/12/28 12:20:55;;;;;;;17.33;9.43;;;5.40;99.90;;;;;;5052225;28;20250;-42
2021/12/28 12:23:28;;;;;;;14.57;8.90;;;5.40;99.90;;;;;;5054602;28;20257;-42
2021/12/28 12:26:07;;;;;;;19.87;8.97;;;5.40;99.90;;;;;;5057492;28;20272;-41
2021/12/28 12:28:48;;;;;;;16.87;9.17;;;5.30;99.90;;;;;;5061678;28;21355;-42
2021/12/28 12:31:41;;;;;;;13.80;8.90;;;5.30;99.90;;;;;;5064693;28;20195;-42
2021/12/28 12:34:27;;;;;;;16.27;9.13;;;5.30;99.90;;;;;;5035172;28;20223;-42
2021/12/28 12:36:55;;;;;;;13.77;8.60;;;5.20;99.90;;;;;;5045316;28;20231;-42
2021/12/28 12:39:23;;;;;;;18.50;8.73;;;5.20;99.90;;;;;;5061402;28;20208;-42
2021/12/28 12:41:53;;;;;;;19.20;9.23;;;5.10;99.90;;;;;;5039610;28;20212;-47
2021/12/28 12:44:23;;;;;;;15.50;8.53;;;5.10;99.90;;;;;;5057874;28;20204;-47
2021/12/28 12:46:52;;;;;;;12.40;8.40;;;5.20;99.90;;;;;;5064185;28;20220;-41
2021/12/28 12:49:22;;;;;;;17.23;8.90;;;5.20;99.90;;;;;;5049132;28;20602;-42
2021/12/28 12:51:55;;;;;;;15.97;8.57;;;5.20;99.90;;;;;;5051581;28;21451;-42